Main page
METAR-TAF:

METAR-TAF

Airports :

Plovdiv Airport

Plovdiv, Bulgaria

latitude: 42-08N, longitude: 024-45E, elevation: 179 m

Current weather observation

The report was made 20 minutes ago, at 20:30 UTC
Wind 5 kt from the West
Temperature -2°C
Humidity 86%
Pressure 1019 hPa
Visibility 10 km or more
light snow showers

METAR: LBPD 222030Z AUTO 26005KT 9999 -SHSN SCT019/// BKN059/// M02/M04 Q1019

Time: 22:50 (20:50 UTC)

Forecast

The report was made 3 hours and 50 minutes ago, at 17:00 UTC
Forecast valid from 22 at 18 UTC to 23 at 18 UTC
Wind 16 kt from the West
Visibility 10 km or more
Scattered clouds at a height of 4000 ft
Broken clouds at a height of 7000 ft
Temporary
from 22 at 18 UTC to 23 at 02 UTC
Visibility: 3000 m
Broken clouds at a height of 1000 ft
Overcast at a height of 2000 ft
snow

TAF: LBPD 221700Z 2218/2318 28016KT 9999 SCT040 BKN070 TEMPO 2218/2302 3000 SN BKN010 OVC020

Weather observations and forecasts of more than 4000 airports (METAR and TAF reports).

The available stations are represented by yellow and red dots on the map.

Hover mouse over dot to see the name of the station.

Then click to see weather observations and forecasts.

To change the map : click on the green buttons with a black cross to zoom in, on the green button with a dash to zoom out, or on the green arrows for adjacent maps.


METAR-TAF: